createdAt,value
2023-03-19T00:00:47.923Z,12.18
2023-03-19T00:03:14.924Z,12.18
2023-03-19T00:05:41.916Z,12.16
2023-03-19T00:08:08.968Z,12.13
2023-03-19T00:10:39.792Z,12.12
2023-03-19T00:13:07.160Z,12.12
2023-03-19T00:15:34.554Z,12.12
2023-03-19T00:18:02.229Z,12.12
2023-03-19T00:20:29.322Z,12.11
2023-03-19T00:22:56.648Z,12.12
2023-03-19T00:25:24.243Z,12.11
2023-03-19T00:27:52.992Z,12.13
2023-03-19T00:30:20.302Z,12.15
2023-03-19T00:32:48.242Z,12.14
2023-03-19T00:35:15.789Z,12.13
2023-03-19T00:37:43.314Z,12.15
2023-03-19T00:40:12.162Z,12.15
2023-03-19T00:42:39.295Z,12.14
2023-03-19T00:45:07.460Z,12.13
2023-03-19T00:47:34.635Z,12.11
2023-03-19T00:50:01.909Z,12.09
2023-03-19T00:52:28.939Z,12.09
2023-03-19T00:54:56.225Z,12.09
2023-03-19T00:57:23.762Z,12.07
2023-03-19T00:59:51.647Z,12.09
2023-03-19T01:02:18.630Z,12.07
2023-03-19T01:04:49.225Z,12.02
2023-03-19T01:07:16.303Z,11.99
2023-03-19T01:09:43.564Z,11.99
2023-03-19T01:12:10.941Z,11.98
2023-03-19T01:14:38.068Z,11.96
2023-03-19T01:17:05.390Z,11.96
2023-03-19T01:19:32.543Z,11.94
2023-03-19T01:21:59.535Z,11.92
2023-03-19T01:24:31.004Z,11.91
2023-03-19T01:26:58.298Z,11.89
2023-03-19T01:29:25.580Z,11.89
2023-03-19T01:31:52.628Z,11.87
2023-03-19T01:34:19.783Z,11.85
2023-03-19T01:36:47.196Z,11.81
2023-03-19T01:39:14.543Z,11.80
2023-03-19T01:41:41.810Z,11.75
2023-03-19T01:44:31.608Z,11.70
2023-03-19T01:47:02.047Z,11.69
2023-03-19T01:49:30.733Z,11.68
2023-03-19T01:52:02.840Z,11.69
2023-03-19T01:54:32.519Z,11.70
2023-03-19T01:57:09.924Z,11.72
2023-03-19T01:59:41.746Z,11.75
2023-03-19T02:02:35.098Z,11.79
2023-03-19T02:05:12.552Z,11.82
2023-03-19T02:07:44.493Z,11.83
2023-03-19T02:10:16.988Z,11.85
2023-03-19T02:12:44.035Z,11.87
2023-03-19T02:15:11.636Z,11.91
2023-03-19T02:17:40.521Z,11.91
2023-03-19T02:20:14.166Z,11.94
2023-03-19T02:22:52.204Z,11.95
2023-03-19T02:25:48.225Z,11.95
2023-03-19T02:28:18.843Z,11.95
2023-03-19T02:30:46.840Z,11.94
2023-03-19T02:33:21.037Z,11.94
2023-03-19T02:35:51.773Z,11.93
2023-03-19T02:38:22.927Z,11.94
2023-03-19T02:40:59.156Z,11.94
2023-03-19T02:43:26.947Z,11.95
2023-03-19T02:45:54.811Z,11.90
2023-03-19T02:48:21.915Z,11.93
2023-03-19T02:50:48.934Z,11.93
2023-03-19T02:53:16.048Z,11.95
2023-03-19T02:55:43.575Z,11.94
2023-03-19T02:58:11.219Z,11.97
2023-03-19T03:00:38.805Z,11.95
2023-03-19T03:03:07.642Z,11.96
2023-03-19T03:05:35.791Z,11.96
2023-03-19T03:08:04.234Z,11.96
2023-03-19T03:10:33.606Z,11.96
2023-03-19T03:13:01.658Z,11.93
2023-03-19T03:15:28.869Z,11.93
2023-03-19T03:17:57.038Z,11.94
2023-03-19T03:20:24.789Z,11.93
2023-03-19T03:22:52.454Z,11.91
2023-03-19T03:25:19.549Z,11.92
2023-03-19T03:27:46.587Z,11.94
2023-03-19T03:30:15.788Z,11.93
2023-03-19T03:32:44.159Z,11.95
2023-03-19T03:35:11.841Z,11.94
2023-03-19T03:37:39.825Z,11.91
2023-03-19T03:40:08.576Z,11.93
2023-03-19T03:42:37.496Z,11.89
2023-03-19T03:45:05.542Z,11.89
2023-03-19T03:47:32.709Z,11.87
2023-03-19T03:49:59.861Z,11.83
2023-03-19T03:52:31.370Z,11.84
2023-03-19T03:54:58.673Z,11.84
2023-03-19T03:57:27.241Z,11.83
2023-03-19T03:59:54.933Z,11.81
2023-03-19T04:02:22.175Z,11.84
2023-03-19T04:04:49.258Z,11.81
2023-03-19T04:07:16.543Z,11.80
2023-03-19T04:09:43.623Z,11.81
2023-03-19T04:12:12.842Z,11.80
2023-03-19T04:14:40.657Z,11.80
2023-03-19T04:17:08.075Z,11.82
2023-03-19T04:19:35.071Z,11.80
2023-03-19T04:22:03.594Z,11.75
2023-03-19T04:24:30.970Z,11.69
2023-03-19T04:26:58.207Z,11.63
2023-03-19T04:29:25.716Z,11.55
2023-03-19T04:31:53.135Z,11.46
2023-03-19T04:34:20.391Z,11.38
2023-03-19T04:36:48.669Z,11.36
2023-03-19T04:39:15.701Z,11.27
2023-03-19T04:41:43.438Z,11.21
2023-03-19T04:44:11.059Z,11.14
2023-03-19T04:46:38.302Z,11.09
2023-03-19T04:49:05.497Z,11.04
2023-03-19T04:51:32.954Z,11.01
2023-03-19T04:54:00.606Z,11.02
2023-03-19T04:56:28.032Z,11.02
2023-03-19T04:58:55.101Z,11.02
2023-03-19T05:01:22.664Z,11.02
2023-03-19T05:03:50.235Z,11.03
2023-03-19T05:06:17.359Z,11.03
2023-03-19T05:08:44.448Z,11.02
2023-03-19T05:11:11.793Z,11.04
2023-03-19T05:13:39.204Z,11.01
2023-03-19T05:16:07.144Z,10.98
2023-03-19T05:18:34.676Z,10.99
2023-03-19T05:21:01.850Z,10.99
2023-03-19T05:23:29.045Z,11.01
2023-03-19T05:26:00.948Z,11.03
2023-03-19T05:28:28.586Z,11.05
2023-03-19T05:30:56.112Z,11.08
2023-03-19T05:33:23.974Z,11.08
2023-03-19T05:35:51.267Z,11.10
2023-03-19T05:38:18.349Z,11.14
2023-03-19T05:40:46.089Z,11.18
2023-03-19T05:43:13.160Z,11.18
2023-03-19T05:45:40.515Z,11.21
2023-03-19T05:48:07.778Z,11.24
2023-03-19T05:50:35.264Z,11.24
2023-03-19T05:53:03.382Z,11.25
2023-03-19T05:55:30.702Z,11.28
2023-03-19T05:57:57.741Z,11.28
2023-03-19T06:00:25.042Z,11.28
2023-03-19T06:02:52.554Z,11.26
2023-03-19T06:05:19.569Z,11.24
2023-03-19T06:07:47.160Z,11.22
2023-03-19T06:10:14.842Z,11.18
2023-03-19T06:12:42.216Z,11.16
2023-03-19T06:15:10.200Z,11.16
2023-03-19T06:17:37.523Z,11.15
2023-03-19T06:20:04.984Z,11.13
2023-03-19T06:22:32.067Z,11.14
2023-03-19T06:24:59.121Z,11.16
2023-03-19T06:27:26.421Z,11.18
2023-03-19T06:29:53.386Z,11.19
2023-03-19T06:32:20.590Z,11.21
2023-03-19T06:34:47.702Z,11.18
2023-03-19T06:37:14.673Z,11.15
2023-03-19T06:39:41.781Z,11.11
2023-03-19T06:42:09.077Z,11.10
2023-03-19T06:44:36.207Z,11.09
2023-03-19T06:47:03.236Z,11.09
2023-03-19T06:49:30.558Z,11.10
2023-03-19T06:51:57.694Z,11.11
2023-03-19T06:54:24.862Z,11.14
2023-03-19T06:56:52.028Z,11.13
2023-03-19T06:59:19.131Z,11.18
2023-03-19T07:01:46.922Z,11.20
2023-03-19T07:04:14.121Z,11.24
2023-03-19T07:06:41.275Z,11.26
2023-03-19T07:09:08.572Z,11.26
2023-03-19T07:11:36.124Z,11.26
2023-03-19T07:14:04.281Z,11.31
2023-03-19T07:16:31.560Z,11.33
2023-03-19T07:18:58.667Z,11.31
2023-03-19T07:21:25.839Z,11.33
2023-03-19T07:23:52.834Z,11.33
2023-03-19T07:26:20.196Z,11.34
2023-03-19T07:28:48.586Z,11.38
2023-03-19T07:31:17.173Z,11.45
2023-03-19T07:33:44.636Z,11.52
2023-03-19T07:36:11.669Z,11.64
2023-03-19T07:38:38.795Z,11.70
2023-03-19T07:41:06.169Z,11.77
2023-03-19T07:43:33.297Z,11.86
2023-03-19T07:46:00.938Z,12.04
2023-03-19T07:48:28.282Z,12.22
2023-03-19T07:50:55.428Z,12.41
2023-03-19T07:53:22.590Z,12.71
2023-03-19T07:55:49.674Z,12.93
2023-03-19T07:58:17.084Z,13.09
2023-03-19T08:00:45.191Z,13.29
2023-03-19T08:03:12.778Z,13.46
2023-03-19T08:05:40.054Z,13.62
2023-03-19T08:08:07.400Z,13.72
2023-03-19T08:10:36.573Z,13.86
2023-03-19T08:13:05.563Z,13.96
2023-03-19T08:15:33.326Z,14.05
2023-03-19T08:18:03.439Z,14.14
2023-03-19T08:20:30.887Z,14.21
2023-03-19T08:22:58.378Z,14.29
2023-03-19T08:25:27.068Z,14.50
2023-03-19T08:27:54.427Z,14.57
2023-03-19T08:30:22.437Z,14.61
2023-03-19T08:32:50.583Z,14.71
2023-03-19T08:35:17.862Z,14.79
2023-03-19T08:37:44.899Z,14.77
2023-03-19T08:40:12.610Z,14.82
2023-03-19T08:42:44.371Z,14.89
2023-03-19T08:45:14.752Z,14.95
2023-03-19T08:47:43.315Z,14.97
2023-03-19T08:50:11.665Z,14.86
2023-03-19T08:52:38.802Z,14.68
2023-03-19T08:55:07.357Z,14.70
2023-03-19T08:57:35.554Z,14.75
2023-03-19T09:00:05.767Z,14.74
2023-03-19T09:02:32.889Z,14.74
2023-03-19T09:05:00.098Z,14.59
2023-03-19T09:07:27.398Z,14.50
2023-03-19T09:09:54.429Z,14.42
2023-03-19T09:12:21.510Z,14.54
2023-03-19T09:14:48.622Z,14.56
2023-03-19T09:17:15.803Z,14.69
2023-03-19T09:19:42.994Z,14.72
2023-03-19T09:22:10.336Z,14.82
2023-03-19T09:24:40.408Z,14.82
2023-03-19T09:27:07.773Z,14.93
2023-03-19T09:29:34.912Z,14.96
2023-03-19T09:32:02.014Z,14.99
2023-03-19T09:34:29.106Z,15.06
2023-03-19T09:36:56.222Z,15.15
2023-03-19T09:39:23.320Z,15.28
2023-03-19T09:42:46.882Z,15.48
2023-03-19T09:45:19.840Z,15.57
2023-03-19T09:47:52.481Z,15.71
2023-03-19T09:50:24.144Z,15.87
2023-03-19T09:53:17.674Z,15.90
2023-03-19T09:55:48.759Z,15.94
2023-03-19T09:58:19.970Z,15.99
2023-03-19T10:00:53.413Z,16.02
2023-03-19T10:03:53.217Z,15.91
2023-03-19T10:06:31.292Z,15.82
2023-03-19T10:09:13.003Z,15.83
2023-03-19T10:12:13.848Z,15.98
2023-03-19T10:15:20.526Z,15.75
2023-03-19T10:18:02.767Z,15.89
2023-03-19T10:20:41.665Z,15.97
2023-03-19T10:23:42.291Z,16.23
2023-03-19T10:26:18.105Z,16.36
2023-03-19T10:29:03.062Z,16.47
2023-03-19T10:31:56.275Z,16.66
2023-03-19T10:34:42.285Z,16.78
2023-03-19T10:37:28.624Z,16.76
2023-03-19T10:40:00.892Z,16.76
2023-03-19T10:43:04.616Z,17.28
2023-03-19T10:45:39.043Z,17.80
2023-03-19T10:48:12.374Z,18.08
2023-03-19T10:50:56.932Z,18.16
2023-03-19T10:53:26.833Z,18.16
2023-03-19T10:56:03.864Z,18.15
2023-03-19T10:58:34.163Z,18.18
2023-03-19T11:01:12.111Z,18.29
2023-03-19T11:03:48.510Z,18.28
2023-03-19T11:06:35.330Z,18.05
2023-03-19T11:09:10.729Z,18.10
2023-03-19T11:11:50.991Z,18.28
2023-03-19T11:14:25.842Z,18.43
2023-03-19T11:17:27.509Z,18.47
2023-03-19T11:20:00.051Z,18.51
2023-03-19T11:22:37.702Z,18.54
2023-03-19T11:25:30.874Z,18.71
2023-03-19T11:28:03.551Z,18.74
2023-03-19T11:31:08.554Z,18.73
2023-03-19T11:34:00.884Z,18.67
2023-03-19T11:36:53.249Z,18.64
2023-03-19T11:39:34.945Z,18.61
2023-03-19T11:42:59.111Z,18.60
2023-03-19T11:46:10.194Z,18.59
2023-03-19T11:49:11.488Z,18.55
2023-03-19T11:52:00.685Z,18.58
2023-03-19T11:55:04.618Z,18.54
2023-03-19T11:57:46.555Z,18.51
2023-03-19T12:00:39.725Z,18.52
2023-03-19T12:03:25.793Z,18.49
2023-03-19T12:06:12.126Z,18.45
2023-03-19T12:09:07.896Z,18.49
2023-03-19T12:12:00.700Z,18.59
2023-03-19T12:14:33.241Z,18.61
2023-03-19T12:17:29.470Z,18.75
2023-03-19T12:20:54.316Z,18.91
2023-03-19T12:23:54.573Z,18.96
2023-03-19T12:26:42.841Z,19.02
2023-03-19T12:29:32.654Z,18.99
2023-03-19T12:32:27.588Z,18.91
2023-03-19T12:35:24.262Z,19.01
2023-03-19T12:38:00.951Z,19.12
2023-03-19T12:40:37.115Z,19.15
2023-03-19T12:43:32.346Z,19.30
2023-03-19T12:46:16.133Z,19.54
2023-03-19T12:48:48.306Z,19.66
2023-03-19T12:51:26.788Z,19.66
2023-03-19T12:54:07.367Z,19.50
2023-03-19T12:56:57.106Z,19.33
2023-03-19T12:59:53.473Z,19.20
2023-03-19T13:02:37.265Z,19.15
2023-03-19T13:05:23.388Z,19.15
2023-03-19T13:08:24.771Z,19.21
2023-03-19T13:10:51.827Z,19.45
2023-03-19T13:13:34.841Z,19.45
2023-03-19T13:16:15.601Z,19.30
2023-03-19T13:19:20.351Z,19.19
2023-03-19T13:21:53.346Z,19.13
2023-03-19T13:24:33.025Z,18.96
2023-03-19T13:27:01.435Z,18.70
2023-03-19T13:29:37.030Z,18.59
2023-03-19T13:32:27.578Z,18.57
2023-03-19T13:35:49.676Z,18.72
2023-03-19T13:38:44.117Z,18.96
2023-03-19T13:41:39.371Z,19.23
2023-03-19T13:44:32.366Z,19.39
2023-03-19T13:47:26.666Z,19.46
2023-03-19T13:50:21.271Z,19.54
2023-03-19T13:52:52.678Z,19.55
2023-03-19T13:55:33.581Z,19.61
2023-03-19T13:58:12.524Z,19.65
2023-03-19T14:00:45.488Z,19.65
2023-03-19T14:03:54.429Z,19.67
2023-03-19T14:06:41.141Z,19.67
2023-03-19T14:09:30.742Z,19.65
2023-03-19T14:12:22.763Z,19.64
2023-03-19T14:15:13.083Z,19.70
2023-03-19T14:17:48.149Z,19.82
2023-03-19T14:20:16.739Z,19.88
2023-03-19T14:23:12.204Z,19.91
2023-03-19T14:26:07.006Z,20.01
2023-03-19T14:29:07.350Z,19.78
2023-03-19T14:31:49.488Z,19.53
2023-03-19T14:34:32.320Z,19.39
2023-03-19T14:37:08.510Z,19.27
2023-03-19T14:39:43.054Z,19.19
2023-03-19T14:42:38.351Z,19.24
2023-03-19T14:46:10.309Z,19.39
2023-03-19T14:48:58.427Z,19.49
2023-03-19T14:52:09.659Z,19.37
2023-03-19T14:54:46.947Z,19.30
2023-03-19T14:57:26.269Z,19.21
2023-03-19T14:59:54.885Z,19.05
2023-03-19T15:02:30.548Z,18.88
2023-03-19T15:05:00.516Z,18.73
2023-03-19T15:07:42.199Z,18.55
2023-03-19T15:10:24.004Z,18.39
2023-03-19T15:13:43.870Z,18.22
2023-03-19T15:17:14.439Z,18.06
2023-03-19T15:19:41.677Z,17.92
2023-03-19T15:22:33.205Z,17.84
2023-03-19T15:25:13.657Z,17.71
2023-03-19T15:27:42.478Z,17.61
2023-03-19T15:30:29.189Z,17.57
2023-03-19T15:33:10.524Z,17.60
2023-03-19T15:35:41.942Z,17.69
2023-03-19T15:38:15.622Z,17.76
2023-03-19T15:40:43.235Z,17.85
2023-03-19T15:43:13.461Z,18.03
2023-03-19T15:45:46.375Z,18.19
2023-03-19T15:48:27.347Z,18.33
2023-03-19T15:51:01.450Z,18.31
2023-03-19T15:53:33.207Z,18.34
2023-03-19T15:56:03.363Z,18.36
2023-03-19T15:58:37.347Z,18.32
2023-03-19T16:01:09.867Z,18.22
2023-03-19T16:03:49.461Z,18.12
2023-03-19T16:06:29.640Z,17.93
2023-03-19T16:09:20.760Z,17.66
2023-03-19T16:11:47.848Z,17.39
2023-03-19T16:14:14.897Z,17.24
2023-03-19T16:24:42.742Z,16.58
2023-03-19T16:27:39.495Z,16.38
2023-03-19T16:30:28.199Z,16.19
2023-03-19T16:33:05.961Z,16.04
2023-03-19T16:35:34.998Z,15.94
2023-03-19T16:38:24.597Z,15.85
2023-03-19T16:41:17.829Z,15.74
2023-03-19T16:43:47.160Z,15.72
2023-03-19T16:46:16.747Z,15.76
2023-03-19T16:48:43.934Z,15.80
2023-03-19T16:51:20.366Z,15.83
2023-03-19T16:53:49.128Z,15.84
2023-03-19T16:56:18.705Z,15.80
2023-03-19T16:58:47.133Z,15.73
2023-03-19T17:01:24.043Z,15.65
2023-03-19T17:03:52.220Z,15.57
2023-03-19T17:06:20.957Z,15.51
2023-03-19T17:08:48.272Z,15.45
2023-03-19T17:11:29.608Z,15.38
2023-03-19T17:13:59.248Z,15.28
2023-03-19T17:16:27.917Z,15.18
2023-03-19T17:18:56.293Z,15.07
2023-03-19T17:21:31.555Z,14.98
2023-03-19T17:23:59.542Z,14.87
2023-03-19T17:26:29.300Z,14.75
2023-03-19T17:28:57.262Z,14.61
2023-03-19T17:31:29.903Z,14.48
2023-03-19T17:34:18.923Z,14.35
2023-03-19T17:36:56.144Z,14.23
2023-03-19T17:39:24.730Z,14.15
2023-03-19T17:41:53.945Z,14.08
2023-03-19T17:44:21.159Z,13.95
2023-03-19T17:46:52.149Z,13.81
2023-03-19T17:49:30.554Z,13.65
2023-03-19T17:51:58.627Z,13.45
2023-03-19T17:54:27.345Z,13.29
2023-03-19T17:56:57.484Z,13.15
2023-03-19T17:59:24.881Z,13.04
2023-03-19T18:01:52.339Z,12.94
2023-03-19T18:04:22.452Z,12.86
2023-03-19T18:06:56.471Z,12.77
2023-03-19T18:09:28.512Z,12.70
2023-03-19T18:11:56.193Z,12.63
2023-03-19T18:14:23.279Z,12.55
2023-03-19T18:16:50.737Z,12.49
2023-03-19T18:19:17.757Z,12.43
2023-03-19T18:21:46.244Z,12.39
2023-03-19T18:24:13.457Z,12.32
2023-03-19T18:26:40.550Z,12.30
2023-03-19T18:29:07.689Z,12.29
2023-03-19T18:31:34.843Z,12.28
2023-03-19T18:34:06.795Z,12.26
2023-03-19T18:36:34.565Z,12.26
2023-03-19T18:39:01.943Z,12.20
2023-03-19T18:41:29.387Z,12.15
2023-03-19T18:43:56.525Z,12.09
2023-03-19T18:46:28.795Z,12.01
2023-03-19T18:49:16.308Z,11.96
2023-03-19T18:51:55.052Z,11.90
2023-03-19T18:54:28.131Z,11.83
2023-03-19T18:56:56.257Z,11.79
2023-03-19T18:59:30.979Z,11.80
2023-03-19T19:02:22.031Z,11.83
2023-03-19T19:04:49.291Z,11.85
2023-03-19T19:07:17.392Z,11.83
2023-03-19T19:09:44.551Z,11.82
2023-03-19T19:12:18.368Z,11.82
2023-03-19T19:14:46.638Z,11.79
2023-03-19T19:17:24.638Z,11.79
2023-03-19T19:19:51.748Z,11.82
2023-03-19T19:22:20.262Z,11.81
2023-03-19T19:24:47.631Z,11.80
2023-03-19T19:27:22.898Z,11.75
2023-03-19T19:29:50.725Z,11.73
2023-03-19T19:32:25.242Z,11.66
2023-03-19T19:34:53.440Z,11.62
2023-03-19T19:37:23.515Z,11.59
2023-03-19T19:39:51.692Z,11.57
2023-03-19T19:42:22.090Z,11.51
2023-03-19T19:44:56.351Z,11.44
2023-03-19T19:47:23.494Z,11.34
2023-03-19T19:49:50.830Z,11.21
2023-03-19T19:52:20.022Z,11.12
2023-03-19T19:54:47.247Z,11.05
2023-03-19T19:57:25.134Z,10.98
2023-03-19T19:59:53.353Z,10.93
2023-03-19T20:02:25.863Z,10.92
2023-03-19T20:04:53.010Z,10.92
2023-03-19T20:07:20.677Z,10.95
2023-03-19T20:09:48.561Z,10.96
2023-03-19T20:12:26.565Z,10.96
2023-03-19T20:14:53.962Z,10.95
2023-03-19T20:17:21.587Z,10.95
2023-03-19T20:19:49.028Z,10.95
2023-03-19T20:22:16.974Z,10.95
2023-03-19T20:24:45.129Z,10.97
2023-03-19T20:27:30.881Z,10.97
2023-03-19T20:29:58.317Z,10.97
2023-03-19T20:32:39.244Z,10.98
2023-03-19T20:35:21.318Z,10.96
2023-03-19T20:37:48.974Z,10.94
2023-03-19T20:40:16.693Z,10.93
2023-03-19T20:42:48.875Z,10.94
2023-03-19T20:45:23.411Z,10.96
2023-03-19T20:47:53.343Z,10.98
2023-03-19T20:50:28.232Z,10.98
2023-03-19T20:53:01.128Z,10.97
2023-03-19T20:55:34.671Z,10.96
2023-03-19T20:58:11.346Z,10.93
2023-03-19T21:00:38.726Z,10.94
2023-03-19T21:03:06.602Z,10.96
2023-03-19T21:05:38.685Z,10.94
2023-03-19T21:08:20.361Z,10.93
2023-03-19T21:10:49.262Z,10.93
2023-03-19T21:13:18.833Z,10.89
2023-03-19T21:15:47.021Z,10.88
2023-03-19T21:18:14.289Z,10.87
2023-03-19T21:20:48.602Z,10.85
2023-03-19T21:23:37.319Z,10.86
2023-03-19T21:26:22.125Z,10.88
2023-03-19T21:28:54.907Z,10.87
2023-03-19T21:31:22.748Z,10.90
2023-03-19T21:33:51.661Z,10.90
2023-03-19T21:36:19.178Z,10.88
2023-03-19T21:38:46.769Z,10.88
2023-03-19T21:41:32.667Z,10.88
2023-03-19T21:44:20.836Z,10.87
2023-03-19T21:46:49.254Z,10.88
2023-03-19T21:49:17.345Z,10.87
2023-03-19T21:51:44.595Z,10.82
2023-03-19T21:54:11.798Z,10.77
2023-03-19T21:56:41.709Z,10.76
2023-03-19T21:59:32.399Z,10.76
2023-03-19T22:02:00.294Z,10.72
2023-03-19T22:04:27.313Z,10.73
2023-03-19T22:06:54.601Z,10.74
2023-03-19T22:09:21.759Z,10.74
2023-03-19T22:11:48.895Z,10.74
2023-03-19T22:14:24.620Z,10.75
2023-03-19T22:16:54.735Z,10.76
2023-03-19T22:19:23.122Z,10.75
2023-03-19T22:21:50.267Z,10.75
2023-03-19T22:24:17.361Z,10.75
2023-03-19T22:26:47.299Z,10.75
2023-03-19T22:29:19.589Z,10.76
2023-03-19T22:31:50.444Z,10.76
2023-03-19T22:34:25.735Z,10.75
2023-03-19T22:36:53.036Z,10.71
2023-03-19T22:39:20.367Z,10.70
2023-03-19T22:41:49.082Z,10.71
2023-03-19T22:44:31.803Z,10.71
2023-03-19T22:47:01.633Z,10.70
2023-03-19T22:49:29.938Z,10.70
2023-03-19T22:51:57.940Z,10.68
2023-03-19T22:54:26.140Z,10.68
2023-03-19T22:56:53.226Z,10.68
2023-03-19T22:59:20.485Z,10.70
2023-03-19T23:01:48.953Z,10.70
2023-03-19T23:04:26.655Z,10.69
2023-03-19T23:06:55.672Z,10.67
2023-03-19T23:09:35.951Z,10.66
2023-03-19T23:12:04.228Z,10.66
2023-03-19T23:14:32.174Z,10.65
2023-03-19T23:17:04.702Z,10.65
2023-03-19T23:19:35.715Z,10.64
2023-03-19T23:22:06.075Z,10.63
2023-03-19T23:24:33.964Z,10.61
2023-03-19T23:27:02.372Z,10.59
2023-03-19T23:29:39.904Z,10.58
2023-03-19T23:32:08.177Z,10.60
2023-03-19T23:34:45.767Z,10.59
2023-03-19T23:37:22.530Z,10.56
2023-03-19T23:39:50.005Z,10.55
2023-03-19T23:42:30.229Z,10.57
2023-03-19T23:45:02.182Z,10.58
2023-03-19T23:47:30.556Z,10.57
2023-03-19T23:49:57.942Z,10.58
2023-03-19T23:52:25.615Z,10.59
2023-03-19T23:54:52.674Z,10.59
2023-03-19T23:57:25.937Z,10.58
2023-03-19T23:59:53.688Z,10.59
